Time;durP1;ratioP1;P1;durP2;ratioP2;P2;SDS_P1;SDS_P2;PMS_P1;PMS_P2;Temp;Humidity;BMP_temperature;BMP_pressure;BME280_temperature;BME280_humidity;BME280_pressure;Samples;Min_cycle;Max_cycle;Signal;HPM_P1;HPM_P2
2022/05/15 00:02:20;;;;;;;6.40;6.10;;;;;;;14.63;77.52;100887.69;5031842;28;20123;-62
2022/05/15 00:04:45;;;;;;;6.20;6.00;;;;;;;14.43;79.49;100878.66;5030269;28;20057;-62
2022/05/15 00:07:11;;;;;;;6.40;6.10;;;;;;;14.37;81.65;100885.56;5030484;28;20021;-62
2022/05/15 00:09:36;;;;;;;6.20;5.97;;;;;;;14.29;83.12;100887.53;5031588;28;20026;-61
2022/05/15 00:12:04;;;;;;;6.38;6.07;;;;;;;14.33;82.60;100881.66;5031429;28;20025;-62
2022/05/15 00:14:31;;;;;;;6.30;6.00;;;;;;;14.35;81.56;100878.78;5031576;28;20116;-62
2022/05/15 00:16:56;;;;;;;6.05;5.85;;;;;;;14.09;83.08;100882.81;5031691;28;20181;-62
2022/05/15 00:19:22;;;;;;;6.72;6.43;;;;;;;14.10;83.04;100876.50;5031461;28;20056;-61
2022/05/15 00:21:47;;;;;;;6.40;6.10;;;;;;;14.13;82.52;100875.28;5030567;28;20026;-62
2022/05/15 00:24:13;;;;;;;6.60;6.30;;;;;;;14.04;81.90;100873.75;5031613;28;20028;-62
2022/05/15 00:26:38;;;;;;;6.40;6.10;;;;;;;13.90;82.00;100878.09;5031528;28;20026;-62
2022/05/15 00:29:04;;;;;;;6.28;5.97;;;;;;;13.94;81.89;100871.34;5034536;28;20037;-62
2022/05/15 00:31:30;;;;;;;6.20;6.00;;;;;;;14.05;80.83;100873.56;5035455;28;20028;-63
2022/05/15 00:33:55;;;;;;;6.40;6.10;;;;;;;13.97;81.76;100880.84;5033465;28;20036;-62
2022/05/15 00:36:21;;;;;;;6.22;5.97;;;;;;;13.94;81.91;100879.38;5024190;28;20028;-62
2022/05/15 00:38:46;;;;;;;6.50;6.20;;;;;;;13.88;82.77;100876.63;5035201;28;20083;-62
2022/05/15 00:41:13;;;;;;;6.50;6.20;;;;;;;13.80;83.33;100875.72;5035166;28;20059;-62
2022/05/15 00:43:47;;;;;;;6.40;6.10;;;;;;;13.88;84.75;100880.13;5034733;28;20045;-61
2022/05/15 00:46:19;;;;;;;6.30;6.00;;;;;;;13.92;84.37;100876.06;5035170;28;20143;-61
2022/05/15 00:48:45;;;;;;;6.07;5.88;;;;;;;13.97;83.90;100875.50;5017580;28;20040;-62
2022/05/15 00:51:17;;;;;;;6.22;6.00;;;;;;;14.05;84.76;100872.72;5031171;28;20512;-62
2022/05/15 00:53:44;;;;;;;6.50;6.20;;;;;;;14.08;83.76;100867.00;5035023;28;20124;-61
2022/05/15 00:56:12;;;;;;;6.20;6.00;;;;;;;14.05;84.33;100870.06;5035007;28;20037;-62
2022/05/15 00:58:46;;;;;;;5.95;5.75;;;;;;;13.96;85.87;100880.03;5034866;28;20086;-63
2022/05/15 01:01:12;;;;;;;6.30;6.00;;;;;;;13.89;86.94;100873.78;5034916;28;20503;-62
2022/05/15 01:03:37;;;;;;;6.15;5.95;;;;;;;13.89;86.10;100876.47;5034748;28;20030;-62
2022/05/15 01:06:03;;;;;;;6.38;6.07;;;;;;;13.85;85.51;100875.16;5034714;28;20021;-61
2022/05/15 01:08:29;;;;;;;6.50;6.20;;;;;;;13.79;85.40;100874.06;5031120;28;20029;-62
2022/05/15 01:10:58;;;;;;;6.20;6.00;;;;;;;13.74;83.40;100878.31;5025092;28;20025;-62
2022/05/15 01:13:27;;;;;;;6.13;5.93;;;;;;;13.80;82.39;100872.22;5033131;28;20528;-62
2022/05/15 01:15:53;;;;;;;6.18;5.95;;;;;;;13.81;83.28;100873.91;5034762;28;20029;-61
2022/05/15 01:18:24;;;;;;;6.43;6.13;;;;;;;13.78;84.41;100880.41;5031403;28;20037;-63
2022/05/15 01:21:00;;;;;;;6.40;6.10;;;;;;;13.86;83.89;100886.66;5033997;28;20028;-62
2022/05/15 01:23:29;;;;;;;6.40;6.10;;;;;;;13.74;85.22;100886.31;5034477;28;20105;-61
2022/05/15 01:25:57;;;;;;;6.00;5.80;;;;;;;13.81;84.60;100882.72;5034628;28;20029;-62
2022/05/15 01:28:25;;;;;;;6.05;5.85;;;;;;;13.73;84.31;100881.97;5034497;28;20021;-62
2022/05/15 01:30:54;;;;;;;6.10;5.90;;;;;;;13.72;84.25;100877.66;5034443;28;20389;-62
2022/05/15 01:33:20;;;;;;;6.90;6.60;;;;;;;13.79;83.09;100876.72;5034596;28;20056;-61
2022/05/15 01:35:45;;;;;;;6.35;6.05;;;;;;;13.70;83.66;100869.84;5034206;28;20029;-60
2022/05/15 01:38:11;;;;;;;6.10;5.90;;;;;;;13.68;82.87;100871.06;5034011;28;20036;-62
2022/05/15 01:40:38;;;;;;;6.35;6.05;;;;;;;13.65;82.71;100866.09;5033574;28;20025;-62
2022/05/15 01:43:06;;;;;;;6.18;5.93;;;;;;;13.62;82.99;100863.81;5032604;28;20512;-62
2022/05/15 01:45:32;;;;;;;6.32;6.03;;;;;;;13.50;84.37;100869.59;5034206;28;20025;-62
2022/05/15 01:47:58;;;;;;;6.30;6.00;;;;;;;13.61;82.77;100867.50;5046077;28;20120;-61
2022/05/15 01:50:24;;;;;;;6.50;6.20;;;;;;;13.49;84.68;100869.78;5033808;28;20109;-62
2022/05/15 01:52:50;;;;;;;6.57;6.28;;;;;;;13.38;85.16;100872.94;5034167;28;20025;-62
2022/05/15 01:55:15;;;;;;;6.32;6.03;;;;;;;13.39;84.65;100863.94;5034296;28;20028;-61
2022/05/15 01:57:41;;;;;;;6.10;5.90;;;;;;;13.29;85.04;100864.19;5033916;28;20071;-61
2022/05/15 02:00:10;;;;;;;6.38;6.07;;;;;;;13.26;85.18;100869.91;5034065;28;20021;-62
2022/05/15 02:02:35;;;;;;;6.70;6.40;;;;;;;13.27;84.53;100859.06;5030516;28;20128;-61
2022/05/15 02:05:01;;;;;;;6.38;6.07;;;;;;;13.15;84.81;100859.69;5025410;28;20108;-62
2022/05/15 02:07:27;;;;;;;6.03;5.82;;;;;;;13.10;84.72;100857.56;5033699;28;20417;-62
2022/05/15 02:09:52;;;;;;;6.50;6.20;;;;;;;13.02;84.99;100862.16;5033405;28;20098;-62
2022/05/15 02:12:18;;;;;;;6.00;5.80;;;;;;;13.12;84.30;100868.84;5033640;28;20459;-62
2022/05/15 02:14:43;;;;;;;6.10;5.90;;;;;;;12.98;84.74;100865.16;5037601;28;20546;-61
2022/05/15 02:17:09;;;;;;;5.97;5.78;;;;;;;13.02;84.69;100870.13;5040444;28;20036;-62
2022/05/15 02:19:34;;;;;;;6.57;6.28;;;;;;;12.98;85.22;100873.16;5033457;28;20030;-62
2022/05/15 02:22:00;;;;;;;6.50;6.20;;;;;;;13.02;85.75;100875.47;5032093;28;20493;-61
2022/05/15 02:24:25;;;;;;;6.30;6.00;;;;;;;13.04;86.13;100870.78;5033478;28;20104;-61
2022/05/15 02:26:51;;;;;;;6.30;6.00;;;;;;;13.02;86.82;100867.47;5033353;28;20029;-62
2022/05/15 02:29:17;;;;;;;6.22;5.97;;;;;;;13.01;87.57;100864.00;5031875;28;20025;-61
2022/05/15 02:31:43;;;;;;;6.05;5.85;;;;;;;13.04;86.88;100870.78;5033405;28;20091;-61
2022/05/15 02:34:08;;;;;;;6.47;6.18;;;;;;;12.99;87.29;100873.97;5033314;28;20032;-62
2022/05/15 02:36:33;;;;;;;6.50;6.20;;;;;;;12.95;87.65;100870.84;5032889;28;20060;-62
2022/05/15 02:38:59;;;;;;;6.30;6.00;;;;;;;13.05;87.31;100875.09;5032938;28;20040;-62
2022/05/15 02:41:24;;;;;;;6.47;6.18;;;;;;;13.05;87.00;100872.44;5033016;28;20021;-63
2022/05/15 02:43:50;;;;;;;6.30;6.00;;;;;;;13.00;87.67;100873.00;5032680;28;20049;-62
2022/05/15 02:46:16;;;;;;;6.03;5.82;;;;;;;13.10;87.09;100872.72;5033006;28;20549;-62
2022/05/15 02:51:26;;;;;;;6.00;5.80;;;;;;;13.42;84.24;100875.03;5031840;28;20534;-62
2022/05/15 02:53:52;;;;;;;6.38;6.07;;;;;;;13.63;82.91;100868.13;5032872;28;20412;-62
2022/05/15 02:56:25;;;;;;;6.30;6.00;;;;;;;13.75;82.37;100878.13;5032825;28;20083;-62
2022/05/15 02:58:50;;;;;;;6.60;6.30;;;;;;;14.05;80.09;100873.56;5038367;28;20032;-62
2022/05/15 03:01:17;;;;;;;6.50;6.20;;;;;;;14.31;77.75;100877.50;5031646;28;20025;-62
2022/05/15 03:03:43;;;;;;;6.50;6.20;;;;;;;14.35;77.52;100881.44;5032809;28;20564;-62
2022/05/15 03:06:10;;;;;;;6.35;6.05;;;;;;;14.49;77.18;100874.44;5032458;28;20029;-61
2022/05/15 03:08:39;;;;;;;6.30;6.00;;;;;;;14.70;75.93;100886.94;5032637;28;20025;-62
2022/05/15 03:11:04;;;;;;;6.30;6.00;;;;;;;14.70;75.91;100884.25;5032504;28;20393;-62
2022/05/15 03:13:30;;;;;;;6.40;6.10;;;;;;;14.51;76.82;100889.22;5028087;28;20022;-62
2022/05/15 03:15:56;;;;;;;6.15;5.95;;;;;;;14.33;77.66;100884.31;5032500;28;20032;-62
2022/05/15 03:18:22;;;;;;;6.22;5.97;;;;;;;14.08;78.82;100881.16;5032754;28;20048;-62
2022/05/15 03:20:47;;;;;;;6.47;6.18;;;;;;;14.73;74.97;100879.34;5032510;28;20472;-62
2022/05/15 03:23:13;;;;;;;6.28;6.00;;;;;;;14.22;77.60;100889.31;5032327;28;20374;-63
2022/05/15 03:25:39;;;;;;;6.35;6.05;;;;;;;14.18;78.02;100888.06;5032568;28;20032;-62
2022/05/15 03:28:09;;;;;;;6.40;6.10;;;;;;;14.55;76.11;100892.34;5032192;28;20044;-62
2022/05/15 03:30:38;;;;;;;6.47;6.18;;;;;;;14.48;75.63;100894.13;5032208;28;20112;-62
2022/05/15 03:33:04;;;;;;;6.40;6.10;;;;;;;15.30;71.36;100896.19;5026015;28;20076;-62
2022/05/15 03:35:30;;;;;;;6.30;6.00;;;;;;;15.34;71.08;100892.09;5031928;28;20033;-62
2022/05/15 03:37:55;;;;;;;6.43;6.13;;;;;;;14.96;72.71;100889.78;5030996;28;20018;-62
2022/05/15 03:40:21;;;;;;;6.47;6.18;;;;;;;15.40;71.34;100896.66;5038736;28;20026;-62
2022/05/15 03:42:46;;;;;;;6.55;6.25;;;;;;;15.81;68.60;100894.00;5021607;28;20116;-62
2022/05/15 03:45:12;;;;;;;6.63;6.32;;;;;;;16.05;67.72;100892.66;5031661;28;20029;-62
2022/05/15 03:47:49;;;;;;;6.28;6.03;;;;;;;16.34;67.18;100887.97;5032023;28;20104;-62
2022/05/15 03:50:15;;;;;;;6.80;6.50;;;;;;;15.97;68.05;100888.31;5031732;28;20025;-62
2022/05/15 03:52:41;;;;;;;6.22;6.00;;;;;;;16.22;66.49;100891.25;5031953;28;20044;-62
2022/05/15 03:55:07;;;;;;;6.28;5.97;;;;;;;17.86;61.70;100894.00;5036027;28;20105;-63
2022/05/15 03:57:33;;;;;;;6.70;6.40;;;;;;;20.62;52.36;100896.00;5031555;28;20043;-63
2022/05/15 03:59:59;;;;;;;6.40;6.10;;;;;;;21.25;50.07;100899.91;5031978;28;20470;-62
2022/05/15 04:02:24;;;;;;;6.47;6.18;;;;;;;20.40;50.97;100894.88;5030220;28;20033;-62
2022/05/15 04:04:50;;;;;;;6.57;6.28;;;;;;;20.57;51.19;100895.91;5031621;28;20033;-63
2022/05/15 04:07:15;;;;;;;6.55;6.25;;;;;;;20.40;51.12;100905.66;5031691;28;20068;-62
2022/05/15 04:09:41;;;;;;;6.80;6.50;;;;;;;22.32;45.91;100911.03;5031738;28;20036;-62
2022/05/15 04:12:11;;;;;;;6.70;6.40;;;;;;;23.81;42.11;100914.13;5031638;28;20079;-62
2022/05/15 04:14:38;;;;;;;6.80;6.50;;;;;;;24.40;40.79;100916.97;5031706;28;20029;-63
2022/05/15 04:17:04;;;;;;;6.72;6.43;;;;;;;23.73;41.60;100915.41;5030366;28;20032;-63
2022/05/15 04:19:30;;;;;;;6.60;6.30;;;;;;;24.61;39.59;100917.97;5031524;28;20078;-63
2022/05/15 04:21:58;;;;;;;6.85;6.55;;;;;;;24.79;38.61;100915.66;5031562;28;20029;-63
2022/05/15 04:24:24;;;;;;;6.82;6.53;;;;;;;25.73;37.11;100918.72;5031691;28;20022;-62
2022/05/15 04:26:49;;;;;;;6.65;6.35;;;;;;;26.25;35.57;100923.22;5023603;28;20022;-62
2022/05/15 04:29:16;;;;;;;6.70;6.40;;;;;;;26.28;35.39;100928.09;5021958;28;20022;-62
2022/05/15 04:31:41;;;;;;;6.80;6.50;;;;;;;24.32;38.78;100923.63;5027655;28;20025;-62
2022/05/15 04:34:07;;;;;;;6.90;6.60;;;;;;;22.76;41.99;100913.13;5031250;28;20600;-62
2022/05/15 04:36:34;;;;;;;6.80;6.50;;;;;;;21.99;44.23;100925.25;5031147;28;20079;-63
2022/05/15 04:39:01;;;;;;;6.60;6.30;;;;;;;22.48;43.33;100924.84;5031697;28;20627;-62
2022/05/15 04:41:27;;;;;;;7.05;6.75;;;;;;;21.71;44.55;100938.72;5031410;28;20029;-63
2022/05/15 04:43:53;;;;;;;6.70;6.40;;;;;;;21.60;45.32;100935.00;5031047;28;20049;-63
2022/05/15 04:46:18;;;;;;;6.70;6.40;;;;;;;21.24;46.04;100942.28;5031440;28;20026;-63
2022/05/15 04:48:44;;;;;;;6.60;6.30;;;;;;;21.31;46.22;100939.50;5031117;28;20025;-62
2022/05/15 04:51:09;;;;;;;6.70;6.40;;;;;;;21.19;46.79;100936.75;5031148;28;20037;-62
2022/05/15 04:53:35;;;;;;;6.90;6.60;;;;;;;21.03;47.26;100937.44;5029086;28;20064;-63
2022/05/15 04:56:02;;;;;;;6.85;6.55;;;;;;;21.49;46.63;100943.91;5031556;28;20033;-62
2022/05/15 04:58:28;;;;;;;6.90;6.60;;;;;;;24.81;39.73;100939.81;5031183;28;20025;-62
2022/05/15 05:00:54;;;;;;;6.97;6.68;;;;;;;25.96;36.81;100950.88;5027665;28;20060;-62
2022/05/15 05:03:20;;;;;;;6.90;6.60;;;;;;;26.99;35.48;100955.41;5031174;28;20030;-62
2022/05/15 05:05:46;;;;;;;7.10;6.80;;;;;;;27.59;34.10;100950.13;5031239;28;20370;-63
2022/05/15 05:08:12;;;;;;;6.82;6.53;;;;;;;28.40;32.90;100962.59;5031257;28;20036;-63
2022/05/15 05:10:39;;;;;;;7.10;6.80;;;;;;;28.24;33.20;100961.84;5029527;28;20103;-63
2022/05/15 05:13:05;;;;;;;7.20;6.90;;;;;;;29.07;31.87;100958.25;5016517;28;20044;-63
2022/05/15 05:15:31;;;;;;;7.10;6.80;;;;;;;29.92;30.85;100966.63;5032386;28;20048;-63
2022/05/15 05:17:57;;;;;;;7.20;6.90;;;;;;;29.86;30.54;100967.81;5041871;28;20404;-63
2022/05/15 05:20:23;;;;;;;7.10;6.80;;;;;;;30.53;28.93;100970.44;5035412;28;20052;-62
2022/05/15 05:22:49;;;;;;;7.20;6.90;;;;;;;30.67;28.24;100967.78;5034425;28;20428;-62
2022/05/15 05:25:15;;;;;;;7.30;7.00;;;;;;;31.27;27.64;100967.88;5028456;28;20032;-62
2022/05/15 05:27:42;;;;;;;7.43;7.13;;;;;;;31.39;27.49;100959.97;5023918;28;20039;-62
2022/05/15 05:30:11;;;;;;;7.10;6.80;;;;;;;31.50;26.96;100964.13;5034722;28;20112;-62
2022/05/15 05:32:36;;;;;;;7.18;6.88;;;;;;;31.61;25.97;100957.34;5034200;28;20021;-63
2022/05/15 05:35:03;;;;;;;7.30;7.00;;;;;;;31.46;26.15;100965.06;5034625;28;20028;-63
2022/05/15 05:37:29;;;;;;;7.40;7.10;;;;;;;31.14;26.83;100971.38;5030082;28;20076;-62
2022/05/15 05:39:54;;;;;;;7.25;6.95;;;;;;;32.72;25.53;100968.91;5029017;28;20026;-62
2022/05/15 05:42:20;;;;;;;7.35;7.05;;;;;;;32.11;25.48;100968.38;5028429;28;20025;-63
2022/05/15 05:44:45;;;;;;;7.22;6.93;;;;;;;31.92;26.21;100962.22;5033810;28;20153;-62
2022/05/15 05:47:11;;;;;;;7.35;7.05;;;;;;;32.61;25.97;100967.50;5034233;28;20025;-62
2022/05/15 05:49:36;;;;;;;7.30;7.00;;;;;;;31.91;26.65;100963.34;5028735;28;20137;-63
2022/05/15 05:52:02;;;;;;;7.18;6.88;;;;;;;32.89;24.98;100959.97;5028342;28;20539;-63
2022/05/15 05:54:28;;;;;;;7.20;6.90;;;;;;;32.96;24.73;100965.84;5026728;28;20030;-62
2022/05/15 05:56:53;;;;;;;7.32;7.03;;;;;;;33.31;24.49;100960.53;5027539;28;20473;-63
2022/05/15 05:59:19;;;;;;;7.22;6.93;;;;;;;32.84;24.20;100963.66;5025229;28;20481;-63
2022/05/15 06:01:44;;;;;;;7.20;6.90;;;;;;;33.63;23.68;100968.44;5026819;28;20025;-62
2022/05/15 06:06:54;;;;;;;7.20;6.90;;;;;;;33.49;23.79;100976.00;5022150;28;20032;-64
2022/05/15 06:09:19;;;;;;;7.35;7.05;;;;;;;32.85;24.64;100981.81;5033138;28;20033;-63
2022/05/15 06:11:45;;;;;;;7.20;6.90;;;;;;;34.26;23.44;100975.38;5033283;28;20104;-62
2022/05/15 06:14:11;;;;;;;7.00;6.70;;;;;;;33.47;23.12;100981.81;5033389;28;20029;-62
2022/05/15 06:16:36;;;;;;;7.30;7.00;;;;;;;33.45;23.63;100973.06;5033409;28;20021;-63
2022/05/15 06:19:02;;;;;;;7.03;6.72;;;;;;;32.75;24.06;100972.94;5033514;28;20025;-62
2022/05/15 06:21:27;;;;;;;6.90;6.60;;;;;;;33.40;23.92;100978.72;5033552;28;20051;-64
2022/05/15 06:23:53;;;;;;;7.05;6.75;;;;;;;31.67;25.64;100970.97;5033098;28;20033;-63
2022/05/15 06:26:18;;;;;;;6.90;6.60;;;;;;;30.10;27.65;100972.44;5033060;28;20022;-63
2022/05/15 06:28:44;;;;;;;7.07;6.78;;;;;;;29.74;28.23;100964.66;5033053;28;20102;-63
2022/05/15 06:31:10;;;;;;;7.20;6.90;;;;;;;30.84;27.20;100979.00;5033042;28;20032;-63
2022/05/15 06:33:35;;;;;;;7.18;6.88;;;;;;;32.83;24.20;100983.19;5031174;28;20430;-63
2022/05/15 06:36:01;;;;;;;7.30;7.00;;;;;;;33.58;22.96;100976.03;5032779;28;20036;-63
2022/05/15 06:38:27;;;;;;;7.38;7.07;;;;;;;33.58;22.87;100976.03;5032069;28;20028;-62
2022/05/15 06:40:53;;;;;;;7.28;6.97;;;;;;;32.53;24.59;100980.06;5028661;28;20045;-63
2022/05/15 06:43:18;;;;;;;7.35;7.05;;;;;;;33.26;23.29;100981.53;5032569;28;20124;-62
2022/05/15 06:45:44;;;;;;;7.40;7.10;;;;;;;33.08;23.72;100982.59;5027916;28;20026;-64
2022/05/15 06:48:09;;;;;;;7.30;7.00;;;;;;;33.95;22.92;100975.53;5025382;28;20362;-63
2022/05/15 06:50:35;;;;;;;7.30;7.00;;;;;;;34.40;22.65;100969.72;5032842;28;20035;-63
2022/05/15 06:53:02;;;;;;;7.32;7.03;;;;;;;34.05;22.69;100971.63;5023725;28;20443;-63
2022/05/15 06:55:28;;;;;;;7.32;7.03;;;;;;;33.51;22.95;100973.75;5032785;28;20109;-63
2022/05/15 06:57:53;;;;;;;7.50;7.20;;;;;;;34.40;22.55;100977.19;5032561;28;20112;-63
2022/05/15 07:00:28;;;;;;;7.30;7.00;;;;;;;34.01;22.35;100973.44;5032479;28;20099;-63
2022/05/15 07:02:53;;;;;;;7.63;7.32;;;;;;;34.12;22.72;100968.41;5032676;28;20029;-63
2022/05/15 07:05:28;;;;;;;7.30;7.00;;;;;;;33.64;22.91;100969.25;5032402;28;20369;-63
2022/05/15 07:07:54;;;;;;;7.30;7.00;;;;;;;34.55;22.13;100973.97;5032330;28;20053;-64
2022/05/15 07:10:20;;;;;;;7.40;7.10;;;;;;;34.76;21.80;100977.66;5032206;28;20115;-63
2022/05/15 07:12:46;;;;;;;7.28;6.97;;;;;;;34.85;21.62;100978.44;5032357;28;20029;-63
2022/05/15 07:15:12;;;;;;;7.55;7.25;;;;;;;34.09;21.99;100983.66;5033307;28;20028;-63
2022/05/15 07:17:37;;;;;;;7.30;7.00;;;;;;;34.92;21.75;100980.75;5034774;28;20033;-63
2022/05/15 07:20:05;;;;;;;7.10;6.80;;;;;;;32.67;23.45;100975.31;5030946;28;20033;-62
2022/05/15 07:22:31;;;;;;;7.20;6.90;;;;;;;33.59;22.81;100977.66;5032120;28;20108;-63
2022/05/15 07:24:56;;;;;;;7.10;6.80;;;;;;;32.58;23.34;100973.66;5032408;28;20417;-63
2022/05/15 07:27:22;;;;;;;7.15;6.85;;;;;;;33.66;22.54;100967.81;5031854;28;20025;-64
2022/05/15 07:29:47;;;;;;;7.03;6.72;;;;;;;33.98;22.50;100972.13;5033057;28;20059;-64
2022/05/15 07:32:13;;;;;;;6.90;6.60;;;;;;;33.79;22.20;100977.09;5031839;28;20477;-64
2022/05/15 07:34:39;;;;;;;7.15;6.85;;;;;;;33.89;22.36;100967.72;5031851;28;20149;-63
2022/05/15 07:37:05;;;;;;;6.80;6.50;;;;;;;34.34;22.01;100971.00;5031480;28;20021;-63
2022/05/15 07:39:31;;;;;;;7.20;6.90;;;;;;;34.07;21.98;100978.44;5031455;28;20017;-63
2022/05/15 07:41:57;;;;;;;7.10;6.80;;;;;;;32.02;24.16;100966.66;5028585;28;20045;-64
2022/05/15 07:44:22;;;;;;;7.00;6.70;;;;;;;32.53;23.50;100968.25;5043150;28;20067;-64
2022/05/15 07:46:48;;;;;;;7.07;6.78;;;;;;;30.89;25.73;100970.72;5033425;28;20029;-64
2022/05/15 07:49:15;;;;;;;7.00;6.70;;;;;;;30.64;25.68;100963.72;5031607;28;20025;-63
2022/05/15 07:51:44;;;;;;;6.93;6.63;;;;;;;30.31;26.12;100965.56;5031553;28;20034;-62
2022/05/15 07:54:17;;;;;;;7.10;6.80;;;;;;;30.26;26.35;100966.47;5031583;28;20048;-62
2022/05/15 07:56:43;;;;;;;6.90;6.60;;;;;;;29.69;26.96;100960.09;5031744;28;20025;-63
2022/05/15 07:59:09;;;;;;;6.80;6.50;;;;;;;29.28;27.01;100956.94;5031460;28;20508;-63
2022/05/15 08:01:34;;;;;;;7.07;6.78;;;;;;;28.85;27.31;100954.03;5031541;28;20060;-63
2022/05/15 08:04:00;;;;;;;7.00;6.70;;;;;;;28.23;28.49;100952.84;5031731;28;20079;-63
2022/05/15 08:09:10;;;;;;;7.00;6.70;;;;;;;28.85;26.55;100955.97;5022686;28;20042;-65
2022/05/15 08:11:36;;;;;;;7.00;6.70;;;;;;;27.68;27.25;100948.47;5025967;28;20033;-64
2022/05/15 08:14:03;;;;;;;6.97;6.68;;;;;;;27.33;27.38;100952.13;5021458;28;20091;-63
2022/05/15 08:16:29;;;;;;;7.07;6.78;;;;;;;27.84;27.17;100946.50;5031363;28;20045;-63
2022/05/15 08:24:23;;;;;;;6.90;6.60;;;;;;;28.32;26.65;100945.72;5032225;28;20083;-64
2022/05/15 08:26:49;;;;;;;6.70;6.40;;;;;;;28.69;25.54;100943.53;5031724;28;20472;-63
2022/05/15 08:29:15;;;;;;;6.90;6.60;;;;;;;26.82;28.25;100938.53;5032074;28;20107;-63
2022/05/15 08:31:41;;;;;;;6.60;6.30;;;;;;;26.45;29.03;100942.31;5031846;28;20402;-64
2022/05/15 08:34:07;;;;;;;6.80;6.50;;;;;;;26.62;28.76;100945.59;5029619;28;20026;-63
2022/05/15 08:36:33;;;;;;;6.90;6.60;;;;;;;26.84;28.16;100928.19;5029807;28;20033;-64
2022/05/15 08:38:59;;;;;;;7.10;6.80;;;;;;;26.27;28.69;100934.63;5021762;28;20025;-63
2022/05/15 08:41:30;;;;;;;6.75;6.45;;;;;;;26.78;28.14;100927.34;5031205;28;20029;-62
2022/05/15 08:44:05;;;;;;;6.82;6.53;;;;;;;27.89;27.36;100930.13;5031036;28;20057;-63
2022/05/15 08:46:36;;;;;;;7.00;6.70;;;;;;;26.32;28.09;100931.94;5031452;28;20041;-64
2022/05/15 08:49:41;;;;;;;6.80;6.50;;;;;;;25.22;30.55;100929.28;5032336;28;20519;-63
2022/05/15 08:52:15;;;;;;;6.95;6.65;;;;;;;27.27;28.31;100926.78;5027540;28;20060;-64
2022/05/15 08:54:50;;;;;;;;;;;;;;;27.17;27.65;100938.50;5035448;28;20392;-64
2022/05/15 08:57:21;;;;;;;6.90;6.60;;;;;;;27.17;27.56;100933.06;5034968;28;19909;-63
2022/05/15 08:59:55;;;;;;;6.63;6.32;;;;;;;26.40;28.34;100943.13;5021373;28;20022;-63
2022/05/15 09:02:21;;;;;;;6.80;6.50;;;;;;;26.17;28.85;100938.97;5035112;28;20021;-63
2022/05/15 09:04:47;;;;;;;6.95;6.65;;;;;;;26.02;28.61;100930.78;5034583;28;20056;-62
2022/05/15 09:07:25;;;;;;;7.20;6.90;;;;;;;25.48;29.46;100931.06;5034062;28;20069;-63
2022/05/15 09:10:01;;;;;;;7.18;6.88;;;;;;;26.12;27.21;100932.69;5034334;28;20061;-64
2022/05/15 09:12:26;;;;;;;7.20;6.90;;;;;;;26.34;26.73;100918.88;5034590;28;20512;-63
2022/05/15 09:15:12;;;;;;;6.65;6.35;;;;;;;25.57;25.93;100932.22;5033273;28;20076;-63
2022/05/15 09:17:58;;;;;;;7.28;6.97;;;;;;;26.32;25.90;100930.03;5034682;28;20026;-63
2022/05/15 09:20:24;;;;;;;7.30;7.00;;;;;;;26.85;25.85;100919.72;5034394;28;20061;-63
2022/05/15 09:23:04;;;;;;;7.05;6.75;;;;;;;27.10;24.49;100921.66;5037279;28;20081;-63
2022/05/15 09:25:34;;;;;;;6.72;6.43;;;;;;;27.43;25.19;100914.75;5034381;28;20467;-63
2022/05/15 09:28:08;;;;;;;6.75;6.45;;;;;;;27.00;25.45;100910.72;5034243;28;20060;-63
2022/05/15 09:30:33;;;;;;;6.90;6.60;;;;;;;26.67;24.96;100912.94;5027135;28;20421;-63
2022/05/15 09:32:59;;;;;;;6.90;6.60;;;;;;;26.68;25.32;100909.13;5026700;28;20033;-63
2022/05/15 09:35:32;;;;;;;6.93;6.63;;;;;;;25.84;26.19;100898.63;5027692;28;20416;-64
2022/05/15 09:43:35;;;;;;;7.10;6.80;;;;;;;26.34;25.97;100916.16;5033961;28;20044;-63
2022/05/15 09:46:16;;;;;;;6.90;6.60;;;;;;;26.55;26.11;100903.41;5034000;28;20040;-63
2022/05/15 09:49:06;;;;;;;7.28;6.97;;;;;;;25.33;28.08;100906.53;5033675;28;20040;-63
2022/05/15 09:51:52;;;;;;;6.88;6.57;;;;;;;26.00;27.39;100910.34;5033677;28;20032;-64
2022/05/15 09:54:50;;;;;;;6.82;6.53;;;;;;;26.57;26.79;100902.03;5020458;28;20021;-63
2022/05/15 09:57:28;;;;;;;6.85;6.55;;;;;;;25.63;28.80;100909.41;5010876;28;20500;-64
2022/05/15 09:59:59;;;;;;;7.00;6.70;;;;;;;25.40;29.00;100898.16;5033545;28;20496;-62
2022/05/15 10:02:39;;;;;;;6.68;6.38;;;;;;;25.22;29.37;100908.38;5033277;28;20025;-63
2022/05/15 10:05:26;;;;;;;6.68;6.38;;;;;;;24.58;30.28;100907.63;5033814;28;20389;-63
2022/05/15 10:08:05;;;;;;;6.80;6.50;;;;;;;24.90;29.41;100896.72;5033672;28;20025;-63
2022/05/15 10:10:31;;;;;;;6.75;6.45;;;;;;;25.05;29.93;100891.47;5033554;28;20481;-62
2022/05/15 10:13:15;;;;;;;7.10;6.80;;;;;;;24.78;29.40;100889.59;5033050;28;20037;-64
2022/05/15 10:15:44;;;;;;;7.03;6.73;;;;;;;24.86;29.37;100888.31;5033368;28;20036;-63
2022/05/15 10:18:22;;;;;;;7.13;6.82;;;;;;;24.74;29.74;100890.38;5033359;28;20034;-63
2022/05/15 10:20:49;;;;;;;6.80;6.50;;;;;;;24.60;29.71;100883.75;5033321;28;20484;-62
2022/05/15 10:23:23;;;;;;;6.80;6.50;;;;;;;24.74;29.71;100880.34;5033324;28;20037;-62
2022/05/15 10:25:48;;;;;;;6.95;6.65;;;;;;;24.51;30.56;100876.09;5033178;28;20075;-64
2022/05/15 10:28:30;;;;;;;6.97;6.68;;;;;;;24.55;30.27;100884.53;5033238;28;20029;-63
2022/05/15 10:31:06;;;;;;;7.10;6.80;;;;;;;24.76;30.29;100882.81;5033450;28;20395;-63
2022/05/15 10:33:38;;;;;;;6.90;6.60;;;;;;;24.71;29.68;100888.19;5024610;28;20066;-63
2022/05/15 10:36:18;;;;;;;6.90;6.60;;;;;;;24.22;30.49;100885.56;5032960;28;20033;-64
2022/05/15 10:38:57;;;;;;;6.60;6.30;;;;;;;24.77;30.14;100882.56;5033111;28;20460;-63
2022/05/15 10:42:13;;;;;;;6.80;6.50;;;;;;;24.29;30.50;100869.91;5032031;28;20512;-63
2022/05/15 10:45:03;;;;;;;6.90;6.60;;;;;;;24.12;31.17;100880.03;4991239;28;20081;-64
2022/05/15 10:47:40;;;;;;;6.97;6.68;;;;;;;24.87;30.60;100876.38;4991039;28;20399;-63
2022/05/15 10:50:18;;;;;;;7.03;6.72;;;;;;;24.91;30.18;100871.25;5023949;28;20049;-63
2022/05/15 10:57:21;;;;;;;6.72;6.43;;;;;;;25.01;29.98;100879.44;5033425;28;20051;-63
2022/05/15 10:59:19;;;;;;;6.68;6.38;;;;;;;24.17;30.44;100864.66;5021303;28;20029;-65
2022/05/15 11:01:58;;;;;;;6.97;6.68;;;;;;;23.94;31.16;100863.06;5001634;28;20042;-63
2022/05/15 11:04:45;;;;;;;6.90;6.60;;;;;;;24.38;31.16;100860.25;5027449;28;20025;-61
2022/05/15 11:07:25;;;;;;;6.85;6.55;;;;;;;24.08;30.71;100865.34;5033015;28;20403;-63
2022/05/15 11:09:59;;;;;;;6.75;6.45;;;;;;;24.33;30.75;100870.25;5032574;28;20032;-63
2022/05/15 11:12:28;;;;;;;6.95;6.65;;;;;;;24.33;30.75;100868.34;5031489;28;20123;-63
2022/05/15 11:15:03;;;;;;;6.70;6.40;;;;;;;24.60;30.75;100856.63;5032265;28;20030;-63
2022/05/15 11:17:50;;;;;;;6.97;6.68;;;;;;;24.49;30.11;100861.97;5032219;28;20564;-63
2022/05/15 11:20:28;;;;;;;6.65;6.35;;;;;;;24.75;29.79;100851.31;5021487;28;20021;-63
2022/05/15 11:23:06;;;;;;;6.75;6.45;;;;;;;24.63;30.56;100850.69;5029789;28;20438;-63
2022/05/15 11:25:45;;;;;;;6.90;6.60;;;;;;;24.49;30.69;100850.31;5031898;28;20048;-64
2022/05/15 11:28:20;;;;;;;7.00;6.70;;;;;;;24.39;30.77;100845.63;5032438;28;20104;-63
2022/05/15 11:30:58;;;;;;;6.68;6.38;;;;;;;24.78;31.16;100850.81;5030055;28;20029;-64
2022/05/15 11:33:44;;;;;;;6.90;6.60;;;;;;;24.37;30.09;100850.47;5020269;28;20044;-63
2022/05/15 11:36:14;;;;;;;6.57;6.28;;;;;;;24.44;30.10;100850.25;5028514;28;21359;-64
2022/05/15 11:39:02;;;;;;;6.55;6.25;;;;;;;24.80;30.00;100846.75;5031756;28;20029;-62
2022/05/15 11:41:36;;;;;;;6.65;6.35;;;;;;;24.51;30.41;100838.13;5031589;28;20045;-62
2022/05/15 11:44:05;;;;;;;6.85;6.55;;;;;;;24.40;30.23;100841.84;5031528;28;20056;-63
2022/05/15 11:46:45;;;;;;;7.07;6.78;;;;;;;24.64;30.45;100836.88;5031509;28;20477;-62
2022/05/15 11:49:29;;;;;;;6.80;6.50;;;;;;;24.94;29.80;100838.97;5031340;28;20103;-63
2022/05/15 11:52:03;;;;;;;6.83;6.53;;;;;;;24.84;29.93;100835.38;5031935;28;20028;-63
2022/05/15 11:54:35;;;;;;;6.97;6.68;;;;;;;24.71;29.98;100825.78;5031325;28;20021;-63
2022/05/15 11:57:01;;;;;;;6.70;6.40;;;;;;;24.39;29.49;100842.94;5031547;28;20027;-65